VTM weather

Nevatim Air Base
Beersheba, Southern District, Israel

Public forecast

Using degrees Celsius for public forecast. Weather courtesy of forecast.io.

Closest aviation weather report (METAR) to Nevatim Air Base

Closest report is Ben Gurion International Airport, 48.6 nm (90.1 km) N. Retrieved 2019/10/14 14:20 UTC (37 minutes ago):

LLBG 141420Z 33009KT CAVOK 29/23 Q1012 NOSIG

Closest aviation forecast (TAF) to Nevatim Air Base

Forecast is more than 12 hours old.

Closest forecast is El Gora Airport, 46.1 nm (85.4 km) W. Retrieved 2019/10/13 18:00 UTC (21 hours ago):

TAF HEGR 131700Z 1318/1424 25008KT 9999 SCT025 TEMPO 1400/1406 6000 -RA BKN020